Time;durP1;ratioP1;P1;durP2;ratioP2;P2;SDS_P1;SDS_P2;PMS_P1;PMS_P2;Temp;Humidity;BMP_temperature;BMP_pressure;BME280_temperature;BME280_humidity;BME280_pressure;Samples;Min_cycle;Max_cycle;Signal;HPM_P1;HPM_P2
2024/01/28 00:01:42;;;;;;;13.95;5.28;;;;;;;3.26;66.55;98343.34;5033800;28;20144;-82
2024/01/28 00:04:09;;;;;;;11.07;4.53;;;;;;;3.26;66.53;98341.59;5033486;28;20054;-82
2024/01/28 00:06:37;;;;;;;11.65;5.68;;;;;;;3.26;67.68;98340.78;5033451;28;20054;-82
2024/01/28 00:09:06;;;;;;;11.50;4.65;;;;;;;3.27;67.02;98338.06;5033690;28;20108;-82
2024/01/28 00:11:33;;;;;;;13.00;4.80;;;;;;;3.29;67.75;98336.25;5033642;28;20050;-82
2024/01/28 00:14:02;;;;;;;10.05;4.40;;;;;;;3.33;68.30;98336.06;5033026;28;20046;-82
2024/01/28 00:16:30;;;;;;;9.30;4.45;;;;;;;3.33;66.92;98336.88;5033730;28;20434;-82
2024/01/28 00:18:58;;;;;;;9.57;4.78;;;;;;;3.33;67.84;98330.91;5033049;28;20136;-82
2024/01/28 00:21:26;;;;;;;8.13;4.57;;;;;;;3.34;68.11;98323.06;5032971;28;20076;-82
2024/01/28 00:23:55;;;;;;;8.55;4.50;;;;;;;3.33;67.44;98320.59;5032932;28;20499;-82
2024/01/28 00:26:23;;;;;;;9.95;4.18;;;;;;;3.34;67.21;98322.25;5032899;28;20053;-82
2024/01/28 00:28:50;;;;;;;10.90;4.53;;;;;;;3.33;67.12;98323.16;5033095;28;20099;-82
2024/01/28 00:31:19;;;;;;;10.77;4.25;;;;;;;3.29;67.60;98320.75;5033179;28;20152;-82
2024/01/28 00:33:47;;;;;;;10.57;5.65;;;;;;;3.27;67.69;98311.47;5033271;28;20049;-82
2024/01/28 00:36:16;;;;;;;9.23;4.65;;;;;;;3.24;66.92;98312.50;5033347;28;20061;-82
2024/01/28 00:38:43;;;;;;;7.68;4.55;;;;;;;3.22;67.51;98304.00;5033229;28;20084;-82
2024/01/28 00:41:21;;;;;;;7.15;4.43;;;;;;;3.21;68.26;98311.84;5036970;28;20137;-82
2024/01/28 00:43:49;;;;;;;7.53;4.32;;;;;;;3.20;67.10;98310.19;5036394;28;20578;-82
2024/01/28 00:46:16;;;;;;;7.40;3.95;;;;;;;3.18;67.46;98305.13;5036459;28;20502;-82
2024/01/28 00:48:45;;;;;;;7.78;4.28;;;;;;;3.16;67.04;98304.38;5036627;28;20083;-82
2024/01/28 00:51:13;;;;;;;12.95;5.00;;;;;;;3.16;67.57;98299.22;5036645;28;20434;-82
2024/01/28 00:53:42;;;;;;;9.05;4.57;;;;;;;3.18;67.54;98287.06;5036242;28;20141;-82
2024/01/28 00:56:09;;;;;;;8.60;4.35;;;;;;;3.18;66.81;98287.06;5036281;28;20522;-82
2024/01/28 00:58:37;;;;;;;11.05;4.60;;;;;;;3.16;67.59;98283.75;5036121;28;20562;-82
2024/01/28 01:01:05;;;;;;;8.55;4.30;;;;;;;3.15;67.33;98287.25;5036045;28;20514;-82
2024/01/28 01:03:33;;;;;;;7.38;4.10;;;;;;;3.15;67.75;98284.69;5036168;28;20045;-82
2024/01/28 01:06:02;;;;;;;12.80;4.68;;;;;;;3.15;67.58;98286.41;5036282;28;20049;-82
2024/01/28 01:08:32;;;;;;;9.30;4.20;;;;;;;3.14;67.41;98277.03;5036355;28;20084;-82
2024/01/28 01:11:03;;;;;;;8.07;4.50;;;;;;;3.15;67.53;98278.69;5036846;28;20085;-82
2024/01/28 01:13:30;;;;;;;9.82;4.70;;;;;;;3.12;67.34;98281.47;5035923;28;20092;-82
2024/01/28 01:15:58;;;;;;;9.60;5.07;;;;;;;3.07;67.46;98279.97;5036024;28;20112;-82
2024/01/28 01:18:26;;;;;;;8.18;5.13;;;;;;;3.06;67.77;98274.91;5035708;28;20063;-81
2024/01/28 01:20:53;;;;;;;9.77;4.40;;;;;;;3.06;67.94;98274.91;5035802;28;20574;-82
2024/01/28 01:23:22;;;;;;;10.00;4.47;;;;;;;3.07;68.32;98274.00;5035486;28;20119;-82
2024/01/28 01:25:50;;;;;;;8.55;4.40;;;;;;;3.08;68.15;98267.91;5035487;28;20148;-82
2024/01/28 01:28:18;;;;;;;11.85;5.18;;;;;;;3.07;68.77;98268.84;5035640;28;20421;-82
2024/01/28 01:30:46;;;;;;;7.50;4.15;;;;;;;3.07;69.04;98274.00;5035764;28;20056;-82
2024/01/28 01:33:14;;;;;;;8.77;4.70;;;;;;;3.09;69.05;98264.44;5035266;28;20057;-82
2024/01/28 01:35:42;;;;;;;7.70;4.38;;;;;;;3.11;69.76;98270.31;5035023;28;20049;-82
2024/01/28 01:38:09;;;;;;;10.10;4.70;;;;;;;3.13;69.19;98268.47;5035269;28;20049;-82
2024/01/28 01:40:38;;;;;;;8.85;4.65;;;;;;;3.13;69.53;98268.47;5035093;28;20045;-82
2024/01/28 01:43:09;;;;;;;6.97;3.67;;;;;;;3.15;69.15;98266.63;5035062;28;20103;-82
2024/01/28 01:45:37;;;;;;;10.18;5.00;;;;;;;3.16;69.42;98263.13;5035610;28;20422;-82
2024/01/28 01:48:07;;;;;;;8.82;4.03;;;;;;;3.16;69.35;98263.13;5035148;28;20045;-82
2024/01/28 01:50:35;;;;;;;7.88;4.28;;;;;;;3.14;69.05;98261.56;5035226;28;20132;-84
2024/01/28 01:53:04;;;;;;;6.15;3.92;;;;;;;3.14;69.31;98254.66;5034771;28;20136;-82
2024/01/28 01:55:34;;;;;;;18.00;5.05;;;;;;;3.14;69.28;98253.84;5035055;28;20499;-82
2024/01/28 01:58:05;;;;;;;9.73;4.82;;;;;;;3.15;70.11;98245.16;5035285;28;20056;-82
2024/01/28 02:00:34;;;;;;;9.20;4.10;;;;;;;3.17;69.86;98244.16;5038167;28;20073;-82
2024/01/28 02:03:02;;;;;;;7.57;3.70;;;;;;;3.19;70.12;98241.47;5057014;28;20045;-82
2024/01/28 02:05:30;;;;;;;6.28;3.65;;;;;;;3.19;69.60;98237.16;5057295;28;20048;-82
2024/01/28 02:07:58;;;;;;;7.32;4.30;;;;;;;3.20;69.50;98249.13;5057038;28;20048;-82
2024/01/28 02:10:26;;;;;;;7.43;3.67;;;;;;;3.20;69.51;98238.00;5045664;28;20049;-82
2024/01/28 02:12:53;;;;;;;5.78;3.63;;;;;;;3.21;69.98;98245.59;5034271;28;20045;-82
2024/01/28 02:15:22;;;;;;;6.93;4.15;;;;;;;3.21;70.13;98243.03;5034705;28;20570;-82
2024/01/28 02:17:50;;;;;;;9.15;4.40;;;;;;;3.24;70.10;98240.28;5034884;28;20053;-82
2024/01/28 02:20:18;;;;;;;8.68;4.13;;;;;;;3.24;69.88;98240.28;5035231;28;20053;-82
2024/01/28 02:22:45;;;;;;;6.45;4.05;;;;;;;3.27;69.96;98240.06;5034407;28;20053;-81
2024/01/28 02:25:14;;;;;;;11.07;4.20;;;;;;;3.29;70.25;98233.06;5034222;28;20045;-82
2024/01/28 02:27:42;;;;;;;4.82;3.75;;;;;;;3.29;69.95;98235.66;5034145;28;20045;-82
2024/01/28 02:30:10;;;;;;;6.25;4.63;;;;;;;3.27;70.15;98237.50;5034510;28;20075;-82
2024/01/28 02:32:38;;;;;;;6.57;3.92;;;;;;;3.25;70.25;98226.44;5034015;28;20051;-82
2024/01/28 02:35:06;;;;;;;6.28;4.13;;;;;;;3.25;70.32;98234.19;5034446;28;20507;-82
2024/01/28 02:37:34;;;;;;;6.47;4.45;;;;;;;3.24;70.07;98232.53;5034656;28;20120;-82
2024/01/28 02:40:03;;;;;;;8.52;4.35;;;;;;;3.23;69.99;98230.88;5034306;28;20072;-82
2024/01/28 02:42:32;;;;;;;8.50;4.05;;;;;;;3.22;69.86;98238.72;5034356;28;20054;-82
2024/01/28 02:44:59;;;;;;;5.50;3.90;;;;;;;3.19;70.55;98229.44;5034547;28;20340;-82
2024/01/28 02:47:27;;;;;;;5.93;3.80;;;;;;;3.20;70.71;98220.75;5034393;28;20487;-82
2024/01/28 02:49:54;;;;;;;5.82;3.58;;;;;;;3.21;70.46;98227.56;5034460;28;20049;-82
2024/01/28 02:52:22;;;;;;;7.03;3.60;;;;;;;3.24;70.68;98224.81;5033529;28;20088;-82
2024/01/28 02:54:50;;;;;;;6.25;3.20;;;;;;;3.26;70.88;98227.28;5034082;28;20046;-82
2024/01/28 02:57:17;;;;;;;6.82;3.90;;;;;;;3.26;70.03;98222.97;5034956;28;20052;-82
2024/01/28 02:59:46;;;;;;;6.28;3.78;;;;;;;3.27;70.75;98224.59;5034035;28;20112;-82
2024/01/28 03:02:14;;;;;;;8.27;3.60;;;;;;;3.28;70.45;98221.13;5033307;28;20095;-82
2024/01/28 03:04:42;;;;;;;8.13;3.75;;;;;;;3.28;70.01;98215.13;5033265;28;20049;-82
2024/01/28 03:07:09;;;;;;;6.00;3.78;;;;;;;3.28;70.36;98218.53;5033429;28;20053;-82
2024/01/28 03:09:37;;;;;;;7.85;3.88;;;;;;;3.31;70.40;98225.25;5033308;28;20107;-82
2024/01/28 03:12:06;;;;;;;7.43;3.67;;;;;;;3.31;70.49;98212.34;5032773;28;20430;-82
2024/01/28 03:14:34;;;;;;;8.40;3.75;;;;;;;3.30;70.44;98214.09;5033383;28;20053;-82
2024/01/28 03:17:03;;;;;;;5.45;3.75;;;;;;;3.34;71.05;98221.63;5033588;28;20064;-82
2024/01/28 03:19:30;;;;;;;7.35;4.30;;;;;;;3.33;70.69;98214.84;5033884;28;20053;-82
2024/01/28 03:21:58;;;;;;;7.10;3.75;;;;;;;3.33;70.81;98217.41;5033713;28;20041;-82
2024/01/28 03:24:26;;;;;;;7.90;4.55;;;;;;;3.32;71.01;98216.56;5055280;28;20049;-83
2024/01/28 03:26:54;;;;;;;5.97;4.75;;;;;;;3.33;71.13;98220.00;5056569;28;20109;-82
2024/01/28 03:29:22;;;;;;;9.80;4.47;;;;;;;3.32;71.54;98226.88;5056894;28;20060;-82
2024/01/28 03:31:49;;;;;;;8.27;4.82;;;;;;;3.29;71.17;98217.59;5040223;28;20053;-82
2024/01/28 03:34:19;;;;;;;8.63;4.53;;;;;;;3.28;70.86;98221.13;5035434;28;20059;-81
2024/01/28 03:36:46;;;;;;;8.90;4.70;;;;;;;3.28;71.04;98221.13;5034511;28;20057;-82
2024/01/28 03:39:15;;;;;;;8.82;4.43;;;;;;;3.25;70.87;98220.47;5034667;28;20045;-82
2024/01/28 03:41:42;;;;;;;7.90;5.00;;;;;;;3.23;71.21;98222.31;5033995;28;20046;-82
2024/01/28 03:44:10;;;;;;;10.60;5.00;;;;;;;3.20;71.84;98225.09;5033407;28;20103;-82
2024/01/28 03:46:38;;;;;;;6.95;4.68;;;;;;;3.20;71.83;98220.75;5033942;28;20494;-82
2024/01/28 03:49:06;;;;;;;10.65;5.10;;;;;;;3.23;72.15;98217.16;5034111;28;20463;-82
2024/01/28 03:51:35;;;;;;;8.07;5.28;;;;;;;3.26;72.11;98214.41;5033741;28;20100;-82
2024/01/28 03:54:03;;;;;;;23.00;5.10;;;;;;;3.26;71.25;98225.53;5033993;28;20100;-82
2024/01/28 03:56:31;;;;;;;7.57;5.28;;;;;;;3.24;71.92;98213.66;5033483;28;20132;-82
2024/01/28 03:58:58;;;;;;;6.45;4.38;;;;;;;3.24;72.01;98218.81;5033535;28;20467;-82
2024/01/28 04:01:32;;;;;;;9.52;4.43;;;;;;;3.23;72.10;98219.72;5045749;28;20111;-82
2024/01/28 04:04:01;;;;;;;8.00;4.40;;;;;;;3.20;71.96;98213.03;5048372;28;20100;-82
2024/01/28 04:06:28;;;;;;;6.95;4.70;;;;;;;3.19;71.75;98208.81;5048456;28;20061;-82
2024/01/28 04:08:58;;;;;;;6.43;4.50;;;;;;;3.18;71.98;98203.72;5045286;28;20491;-82
2024/01/28 04:11:26;;;;;;;7.80;4.35;;;;;;;3.15;71.58;98212.50;5034743;28;20497;-82
2024/01/28 04:13:54;;;;;;;7.78;4.90;;;;;;;3.11;71.28;98198.13;5033670;28;20088;-81
2024/01/28 04:16:22;;;;;;;7.65;4.88;;;;;;;3.10;72.10;98196.47;5037254;28;20123;-82
2024/01/28 04:18:51;;;;;;;5.45;4.45;;;;;;;3.12;71.90;98199.78;5037232;28;20105;-82
2024/01/28 04:21:19;;;;;;;8.52;4.85;;;;;;;3.14;71.73;98197.09;5037709;28;20531;-81
2024/01/28 04:23:47;;;;;;;7.47;4.20;;;;;;;3.13;71.76;98200.59;5037274;28;20061;-82
2024/01/28 04:26:16;;;;;;;9.70;6.18;;;;;;;3.11;71.29;98198.13;5037465;28;20103;-81
2024/01/28 04:28:45;;;;;;;7.47;5.22;;;;;;;3.10;71.46;98201.63;5037232;28;20127;-82
2024/01/28 04:31:13;;;;;;;6.43;4.65;;;;;;;3.11;71.48;98205.03;5037249;28;20111;-81
2024/01/28 04:33:42;;;;;;;6.07;4.13;;;;;;;3.09;71.89;98205.13;5036187;28;20132;-81
2024/01/28 04:36:10;;;;;;;9.95;4.25;;;;;;;3.08;71.23;98208.63;5036072;28;20050;-81
2024/01/28 04:38:37;;;;;;;8.32;4.40;;;;;;;3.06;71.05;98205.31;5036547;28;20065;-82
2024/01/28 04:41:05;;;;;;;6.57;3.90;;;;;;;3.04;70.61;98196.84;5036807;28;20096;-82
2024/01/28 04:43:34;;;;;;;7.65;4.82;;;;;;;3.03;70.82;98210.66;5036824;28;20063;-82
2024/01/28 04:46:02;;;;;;;7.03;4.20;;;;;;;3.03;70.79;98202.94;5037517;28;20080;-81
2024/01/28 04:48:29;;;;;;;5.60;4.15;;;;;;;3.03;70.69;98205.50;5037027;28;20041;-81
2024/01/28 04:50:57;;;;;;;7.43;4.72;;;;;;;3.05;71.44;98198.50;5036797;28;20153;-82
2024/01/28 04:53:25;;;;;;;9.48;4.72;;;;;;;3.05;70.95;98196.75;5036795;28;20447;-81
2024/01/28 04:55:52;;;;;;;7.82;4.60;;;;;;;3.05;70.76;98193.34;5037169;28;20594;-81
2024/01/28 04:58:20;;;;;;;6.43;4.68;;;;;;;3.07;71.24;98202.63;5036397;28;20046;-82
2024/01/28 05:00:49;;;;;;;5.45;4.40;;;;;;;3.09;71.46;98200.78;5036376;28;20042;-81
2024/01/28 05:03:17;;;;;;;7.43;4.25;;;;;;;3.12;71.01;98207.50;5036184;28;20103;-81
2024/01/28 05:05:45;;;;;;;6.22;4.72;;;;;;;3.13;71.27;98204.03;5036488;28;20049;-82
2024/01/28 05:08:12;;;;;;;6.55;4.93;;;;;;;3.15;71.48;98207.34;5036409;28;20045;-82
2024/01/28 05:10:40;;;;;;;8.48;5.90;;;;;;;3.18;72.56;98204.56;5036265;28;20487;-82
2024/01/28 05:13:07;;;;;;;11.93;5.75;;;;;;;3.21;72.18;98204.34;5035769;28;20083;-82
2024/01/28 05:15:35;;;;;;;9.10;6.10;;;;;;;3.19;71.86;98193.31;5036527;28;20379;-81
2024/01/28 05:18:05;;;;;;;11.02;6.47;;;;;;;3.17;71.21;98210.66;5036422;28;20051;-82
2024/01/28 05:20:33;;;;;;;12.27;6.70;;;;;;;3.13;70.77;98206.59;5036359;28;20049;-82
2024/01/28 05:23:00;;;;;;;10.50;6.65;;;;;;;3.07;70.58;98207.78;5035698;28;20053;-82
2024/01/28 05:25:28;;;;;;;16.75;8.32;;;;;;;3.01;70.70;98210.75;5034621;28;20545;-82
2024/01/28 05:27:56;;;;;;;13.65;6.80;;;;;;;2.93;70.33;98204.41;5035747;28;20105;-82
2024/01/28 05:30:23;;;;;;;12.38;7.68;;;;;;;2.82;70.72;98198.19;5036352;28;20423;-82
2024/01/28 05:32:51;;;;;;;11.15;7.80;;;;;;;2.76;70.74;98200.31;5035835;28;20050;-81
2024/01/28 05:35:20;;;;;;;13.13;7.97;;;;;;;2.73;71.95;98198.72;5035476;28;20602;-81
2024/01/28 05:37:48;;;;;;;9.70;7.00;;;;;;;2.70;70.98;98201.50;5035665;28;20053;-82
2024/01/28 05:40:16;;;;;;;13.35;7.75;;;;;;;2.61;70.94;98194.31;5035371;28;20490;-82
2024/01/28 05:42:43;;;;;;;12.38;7.25;;;;;;;2.57;71.17;98200.56;5035356;28;20085;-82
2024/01/28 05:45:11;;;;;;;14.70;7.70;;;;;;;2.54;71.51;98203.34;5035738;28;20129;-81
2024/01/28 05:47:39;;;;;;;13.68;8.02;;;;;;;2.49;71.24;98206.19;5035710;28;20061;-82
2024/01/28 05:50:07;;;;;;;11.32;7.55;;;;;;;2.44;70.96;98197.91;5035880;28;20049;-81
2024/01/28 05:52:36;;;;;;;12.48;8.02;;;;;;;2.38;71.55;98208.56;5034877;28;20471;-81
2024/01/28 05:55:04;;;;;;;14.75;8.80;;;;;;;2.30;71.54;98206.47;5035466;28;20053;-81
2024/01/28 05:57:31;;;;;;;11.77;8.13;;;;;;;2.26;71.55;98210.94;5035663;28;20045;-81
2024/01/28 05:59:59;;;;;;;10.77;7.50;;;;;;;2.22;71.51;98218.94;5035548;28;20050;-81
2024/01/28 06:02:26;;;;;;;14.48;8.60;;;;;;;2.19;71.72;98204.50;5035606;28;20106;-81
2024/01/28 06:04:54;;;;;;;11.85;7.70;;;;;;;2.19;72.17;98217.38;5035432;28;20558;-81
2024/01/28 06:07:22;;;;;;;13.18;9.55;;;;;;;2.16;72.13;98209.81;5035454;28;20046;-81
2024/01/28 06:09:51;;;;;;;13.88;10.00;;;;;;;2.12;71.90;98215.25;5035084;28;20427;-81
2024/01/28 06:12:19;;;;;;;16.27;10.43;;;;;;;2.05;71.66;98215.59;5034646;28;20063;-81
2024/01/28 06:14:46;;;;;;;15.88;10.02;;;;;;;1.99;72.00;98220.25;5035052;28;20049;-81
2024/01/28 06:17:15;;;;;;;14.88;9.65;;;;;;;1.94;72.06;98215.38;5034236;28;20045;-81
2024/01/28 06:19:44;;;;;;;13.23;9.27;;;;;;;1.91;72.43;98210.44;5034774;28;20132;-81
2024/01/28 06:22:12;;;;;;;14.15;10.38;;;;;;;1.85;72.23;98221.88;5034636;28;20584;-81
2024/01/28 06:24:42;;;;;;;16.98;10.40;;;;;;;1.81;72.34;98219.56;5034613;28;20151;-81
2024/01/28 06:27:11;;;;;;;15.60;10.13;;;;;;;1.76;72.16;98219.00;5034756;28;20056;-82
2024/01/28 06:29:38;;;;;;;17.02;10.70;;;;;;;1.71;72.70;98213.31;5034850;28;20469;-81
2024/01/28 06:32:06;;;;;;;16.92;10.23;;;;;;;1.68;72.61;98214.28;5034243;28;20041;-81
2024/01/28 06:34:35;;;;;;;15.85;10.18;;;;;;;1.63;72.61;98209.41;5034023;28;20084;-81
2024/01/28 06:37:03;;;;;;;16.08;9.88;;;;;;;1.60;72.59;98211.34;5034300;28;20053;-81
2024/01/28 06:39:31;;;;;;;16.95;11.70;;;;;;;1.57;73.25;98206.34;5034648;28;20473;-81
2024/01/28 06:41:59;;;;;;;13.55;9.90;;;;;;;1.55;72.98;98201.31;5034735;28;20050;-81
2024/01/28 06:44:27;;;;;;;15.00;9.75;;;;;;;1.49;72.87;98201.66;5034420;28;20049;-81
2024/01/28 06:46:55;;;;;;;16.33;9.90;;;;;;;1.47;73.24;98208.63;5034322;28;20128;-81
2024/01/28 06:49:23;;;;;;;17.90;9.52;;;;;;;1.47;73.45;98206.06;5034155;28;20049;-81
2024/01/28 06:51:50;;;;;;;16.73;10.95;;;;;;;1.47;73.12;98210.38;5034319;28;20072;-81
2024/01/28 06:54:19;;;;;;;19.77;10.38;;;;;;;1.44;73.40;98213.91;5034108;28;20507;-81
2024/01/28 06:56:47;;;;;;;15.27;9.70;;;;;;;1.42;73.38;98198.59;5034378;28;20056;-81
2024/01/28 06:59:14;;;;;;;16.98;10.45;;;;;;;1.41;73.08;98203.81;5033969;28;20063;-81
2024/01/28 07:01:44;;;;;;;15.02;9.82;;;;;;;1.41;73.35;98209.78;5034002;28;20055;-81
2024/01/28 07:04:12;;;;;;;15.10;10.55;;;;;;;1.42;73.49;98197.75;5034288;28;20139;-81
2024/01/28 07:06:40;;;;;;;15.48;9.98;;;;;;;1.41;73.28;98212.34;5034048;28;20050;-81
2024/01/28 07:09:08;;;;;;;16.23;10.52;;;;;;;1.38;73.33;98212.53;5034347;28;20046;-81
2024/01/28 07:11:35;;;;;;;20.23;9.90;;;;;;;1.34;73.16;98211.03;5033788;28;20526;-81
2024/01/28 07:14:03;;;;;;;18.77;9.77;;;;;;;1.31;73.01;98210.38;5033841;28;20095;-81
2024/01/28 07:16:32;;;;;;;15.85;10.45;;;;;;;1.29;73.66;98204.47;5034028;28;20053;-81
2024/01/28 07:19:01;;;;;;;15.75;10.00;;;;;;;1.29;73.52;98207.03;5033810;28;20530;-81
2024/01/28 07:21:32;;;;;;;15.15;10.02;;;;;;;1.30;73.61;98206.16;5034260;28;20075;-81
2024/01/28 07:24:00;;;;;;;14.15;9.82;;;;;;;1.29;73.62;98205.31;5033799;28;20057;-81
2024/01/28 07:26:27;;;;;;;16.38;10.68;;;;;;;1.29;73.73;98217.34;5034071;28;20076;-81
2024/01/28 07:28:55;;;;;;;14.68;10.35;;;;;;;1.30;73.36;98208.72;5033782;28;20076;-81
2024/01/28 07:31:22;;;;;;;14.52;9.52;;;;;;;1.29;73.33;98215.63;5033561;28;20507;-81
2024/01/28 07:33:50;;;;;;;18.05;10.38;;;;;;;1.28;73.50;98208.78;5033442;28;20520;-82
2024/01/28 07:36:19;;;;;;;14.95;10.32;;;;;;;1.28;73.37;98210.53;5033458;28;20140;-82
2024/01/28 07:38:47;;;;;;;14.38;9.95;;;;;;;1.27;73.17;98199.44;5033554;28;20049;-81
2024/01/28 07:41:15;;;;;;;13.48;10.10;;;;;;;1.29;73.55;98202.75;5042147;28;20053;-81
2024/01/28 07:43:43;;;;;;;15.52;9.70;;;;;;;1.31;73.56;98210.38;5051812;28;20399;-82
2024/01/28 07:46:10;;;;;;;16.70;9.75;;;;;;;1.32;73.63;98201.75;5055179;28;20053;-81
2024/01/28 07:48:39;;;;;;;17.65;10.18;;;;;;;1.35;73.84;98199.00;5055657;28;20046;-81
2024/01/28 07:51:07;;;;;;;15.23;10.50;;;;;;;1.37;73.69;98194.59;5055488;28;20056;-82
2024/01/28 07:53:36;;;;;;;15.02;9.27;;;;;;;1.39;73.67;98206.47;5054947;28;20121;-81
2024/01/28 07:56:04;;;;;;;15.60;9.32;;;;;;;1.42;73.61;98208.03;5055709;28;20048;-82
2024/01/28 07:58:31;;;;;;;13.30;9.90;;;;;;;1.45;73.37;98202.72;5054933;28;20037;-82
2024/01/28 08:00:59;;;;;;;15.20;9.18;;;;;;;1.49;73.65;98206.78;5054834;28;20049;-81
2024/01/28 08:03:27;;;;;;;16.67;10.57;;;;;;;1.52;73.50;98203.22;5054485;28;20057;-82
2024/01/28 08:05:54;;;;;;;15.15;9.32;;;;;;;1.53;73.52;98210.84;5053006;28;20050;-82
2024/01/28 08:08:22;;;;;;;16.63;9.60;;;;;;;1.56;73.66;98213.25;5036011;28;20061;-82
2024/01/28 08:10:51;;;;;;;15.93;9.88;;;;;;;1.58;73.22;98218.31;5038916;28;20034;-82
2024/01/28 08:13:19;;;;;;;14.35;9.77;;;;;;;1.59;73.71;98220.78;5052400;28;20069;-81
2024/01/28 08:15:47;;;;;;;15.55;8.95;;;;;;;1.61;73.42;98218.13;5053660;28;20371;-82
2024/01/28 08:18:15;;;;;;;15.13;9.68;;;;;;;1.61;73.33;98216.38;5053628;28;20049;-82
2024/01/28 08:20:43;;;;;;;19.65;9.52;;;;;;;1.62;73.55;98225.78;5052787;28;20060;-82
2024/01/28 08:23:10;;;;;;;14.27;9.82;;;;;;;1.69;73.80;98217.72;5049987;28;20049;-82
2024/01/28 08:25:38;;;;;;;18.55;9.85;;;;;;;1.74;73.20;98216.53;5037667;28;20506;-82
2024/01/28 08:28:07;;;;;;;14.90;9.65;;;;;;;1.77;73.10;98220.66;5035297;28;20041;-82
2024/01/28 08:30:34;;;;;;;15.40;9.32;;;;;;;1.78;72.61;98219.75;5034608;28;20077;-81
2024/01/28 08:33:02;;;;;;;13.20;9.07;;;;;;;1.80;72.74;98223.06;5034923;28;20060;-81
2024/01/28 08:35:31;;;;;;;17.27;10.23;;;;;;;1.85;73.23;98219.31;5034655;28;20045;-82
2024/01/28 08:37:59;;;;;;;11.30;8.15;;;;;;;1.92;72.92;98222.38;5034429;28;20053;-81
2024/01/28 08:40:26;;;;;;;15.57;8.52;;;;;;;1.95;72.57;98222.22;5041828;28;20037;-81
2024/01/28 08:42:54;;;;;;;13.20;8.77;;;;;;;2.01;72.36;98221.00;5056594;28;20052;-80
2024/01/28 08:45:23;;;;;;;16.90;8.73;;;;;;;2.05;72.15;98218.16;5056732;28;20077;-81
2024/01/28 08:47:51;;;;;;;13.95;8.05;;;;;;;2.13;71.70;98224.63;5055422;28;20085;-82
2024/01/28 08:50:18;;;;;;;13.85;8.15;;;;;;;2.20;71.91;98226.75;5034300;28;20049;-82
2024/01/28 08:52:46;;;;;;;10.32;7.78;;;;;;;2.29;71.71;98219.41;5034148;28;20474;-82
2024/01/28 08:55:13;;;;;;;15.57;9.23;;;;;;;2.36;71.47;98226.69;5033693;28;20045;-82
2024/01/28 08:57:41;;;;;;;14.57;8.55;;;;;;;2.44;70.83;98224.47;5033891;28;20049;-82
2024/01/28 09:00:11;;;;;;;12.82;8.02;;;;;;;2.51;70.50;98218.97;5033734;28;20050;-82
2024/01/28 09:02:41;;;;;;;10.32;7.00;;;;;;;2.60;70.54;98218.41;5036423;28;20049;-82
2024/01/28 09:05:10;;;;;;;10.23;7.10;;;;;;;2.72;70.37;98216.88;5037437;28;20430;-82
2024/01/28 09:07:38;;;;;;;11.43;7.35;;;;;;;2.85;70.12;98218.59;5037003;28;20061;-82
2024/01/28 09:10:06;;;;;;;9.30;6.72;;;;;;;3.00;69.82;98223.75;5037247;28;20554;-82
2024/01/28 09:12:34;;;;;;;11.65;7.43;;;;;;;3.11;69.15;98216.19;5036706;28;20128;-82
2024/01/28 09:15:02;;;;;;;9.85;7.30;;;;;;;3.19;68.79;98216.53;5037276;28;20056;-82
2024/01/28 09:17:29;;;;;;;11.30;7.45;;;;;;;3.28;68.82;98221.13;5037238;28;20077;-82
2024/01/28 09:19:58;;;;;;;9.10;6.15;;;;;;;3.39;68.39;98217.00;5036607;28;20045;-82
2024/01/28 09:22:26;;;;;;;9.38;6.03;;;;;;;3.49;67.78;98212.94;5036291;28;20057;-82
2024/01/28 09:24:54;;;;;;;8.75;7.00;;;;;;;3.64;68.11;98211.94;5036564;28;20045;-83
2024/01/28 09:27:23;;;;;;;9.02;5.95;;;;;;;3.86;67.40;98213.97;5037006;28;20427;-82
2024/01/28 09:29:51;;;;;;;9.80;6.15;;;;;;;4.06;66.87;98217.81;5037870;28;20050;-83
2024/01/28 09:32:18;;;;;;;9.43;6.00;;;;;;;4.25;66.82;98211.47;5037292;28;20459;-82
2024/01/28 09:34:48;;;;;;;9.85;6.00;;;;;;;4.40;65.80;98213.00;5036693;28;20252;-83
2024/01/28 09:37:17;;;;;;;10.20;6.03;;;;;;;4.56;64.72;98209.41;5055895;28;20069;-82
2024/01/28 09:39:45;;;;;;;8.25;6.00;;;;;;;4.66;64.85;98213.00;5058891;28;20113;-83
2024/01/28 09:42:17;;;;;;;7.32;5.82;;;;;;;4.80;63.92;98201.72;5057614;28;20050;-82
2024/01/28 09:44:45;;;;;;;9.90;5.82;;;;;;;4.89;64.00;98212.22;5054473;28;20052;-83
2024/01/28 09:47:13;;;;;;;7.07;5.55;;;;;;;4.90;63.22;98207.91;5040300;28;20503;-83
2024/01/28 09:49:43;;;;;;;6.65;5.10;;;;;;;4.97;63.18;98213.47;5040503;28;20049;-83
2024/01/28 09:52:12;;;;;;;8.32;5.40;;;;;;;5.08;63.02;98218.72;5038894;28;20050;-82
2024/01/28 09:54:44;;;;;;;7.70;5.65;;;;;;;5.22;62.44;98217.75;5038322;28;20077;-83
2024/01/28 09:57:12;;;;;;;6.50;4.78;;;;;;;5.42;62.56;98219.75;5036758;28;20045;-83
2024/01/28 09:59:40;;;;;;;7.18;5.25;;;;;;;5.62;61.81;98220.06;5036716;28;20056;-82
2024/01/28 10:02:08;;;;;;;6.40;4.70;;;;;;;5.82;62.02;98221.25;5036320;28;20479;-82
2024/01/28 10:04:37;;;;;;;6.03;4.80;;;;;;;6.08;61.05;98219.34;5036425;28;20069;-83
2024/01/28 10:07:07;;;;;;;7.95;5.55;;;;;;;6.34;60.20;98217.41;5035779;28;20049;-83
2024/01/28 10:09:35;;;;;;;7.60;4.75;;;;;;;6.64;59.54;98214.25;5036835;28;20570;-83
2024/01/28 10:14:32;;;;;;;9.57;4.88;;;;;;;7.21;57.46;98215.03;5012319;28;20475;-79
2024/01/28 10:16:59;;;;;;;8.25;5.28;;;;;;;7.35;57.23;98216.56;5014201;28;20060;-80
2024/01/28 10:19:27;;;;;;;6.72;4.75;;;;;;;7.47;56.64;98222.53;5014208;28;20049;-79
2024/01/28 10:21:56;;;;;;;7.03;4.40;;;;;;;7.70;56.29;98223.31;5013731;28;20053;-80
2024/01/28 10:24:23;;;;;;;5.63;4.25;;;;;;;7.90;56.22;98219.91;4994463;28;20061;-80
2024/01/28 10:26:51;;;;;;;7.53;4.53;;;;;;;8.15;55.73;98220.50;4994494;28;20054;-80
2024/01/28 10:29:20;;;;;;;5.68;4.00;;;;;;;8.53;55.92;98230.34;4994225;28;20092;-79
2024/01/28 10:31:49;;;;;;;6.55;4.60;;;;;;;8.91;53.56;98218.47;4994464;28;20054;-80
2024/01/28 10:34:17;;;;;;;5.32;4.10;;;;;;;9.18;52.85;98207.47;4994194;28;20054;-80
2024/01/28 10:36:48;;;;;;;6.20;4.40;;;;;;;9.50;51.75;98211.63;4994316;28;20086;-80
2024/01/28 10:39:18;;;;;;;5.13;4.10;;;;;;;9.85;52.69;98211.09;4993897;28;20060;-80
2024/01/28 10:41:54;;;;;;;5.00;3.58;;;;;;;10.25;50.15;98204.06;4994465;28;20058;-79
2024/01/28 10:44:23;;;;;;;6.45;3.65;;;;;;;10.58;49.68;98199.34;4993744;28;20061;-79
2024/01/28 10:46:54;;;;;;;6.55;4.35;;;;;;;10.85;47.79;98198.56;4994405;28;20056;-80
2024/01/28 10:49:27;;;;;;;6.15;4.05;;;;;;;11.06;47.17;98193.94;4994227;28;20137;-80
2024/01/28 10:51:57;;;;;;;4.57;3.85;;;;;;;11.32;47.87;98195.84;4993856;28;20493;-80
2024/01/28 10:54:26;;;;;;;5.32;4.00;;;;;;;11.54;47.12;98195.44;4994235;28;20451;-79
2024/01/28 10:56:55;;;;;;;4.35;3.90;;;;;;;11.85;46.58;98189.84;4993875;28;20085;-80
2024/01/28 10:59:23;;;;;;;4.18;3.30;;;;;;;12.14;45.88;98178.31;4994052;28;20050;-80
2024/01/28 11:01:53;;;;;;;4.00;3.30;;;;;;;12.49;44.46;98187.84;4994723;28;20145;-80
2024/01/28 11:04:20;;;;;;;3.90;3.47;;;;;;;12.82;43.79;98184.59;4994432;28;20054;-80
2024/01/28 11:06:48;;;;;;;4.80;3.88;;;;;;;13.16;43.15;98169.66;4994345;28;20507;-80
2024/01/28 11:09:16;;;;;;;5.53;3.33;;;;;;;13.48;42.31;98170.72;4994881;28;20054;-81
2024/01/28 11:11:43;;;;;;;3.30;2.92;;;;;;;13.78;41.39;98166.66;4994435;28;20073;-80
2024/01/28 11:14:11;;;;;;;3.72;3.10;;;;;;;14.11;43.27;98173.72;4994108;28;20113;-80
2024/01/28 11:16:40;;;;;;;3.53;3.20;;;;;;;14.47;40.86;98171.50;4994790;28;20527;-80
2024/01/28 11:19:15;;;;;;;4.38;3.60;;;;;;;14.80;39.19;98161.78;4994805;28;20144;-80
2024/01/28 11:21:50;;;;;;;6.38;2.88;;;;;;;15.10;39.27;98161.16;4994526;28;20050;-80
2024/01/28 11:24:18;;;;;;;3.80;3.17;;;;;;;15.34;38.75;98165.44;4993729;28;20104;-80
2024/01/28 11:26:47;;;;;;;4.40;3.30;;;;;;;15.58;38.71;98159.22;4994518;28;20050;-80
2024/01/28 11:29:16;;;;;;;3.70;2.58;;;;;;;15.91;38.09;98164.25;4993927;28;20050;-80
2024/01/28 11:31:45;;;;;;;4.03;2.58;;;;;;;16.26;36.71;98158.34;4994491;28;20074;-80
2024/01/28 11:34:15;;;;;;;3.72;2.90;;;;;;;16.46;35.01;98158.66;4993832;28;20061;-80
2024/01/28 11:36:45;;;;;;;3.80;2.80;;;;;;;16.55;35.07;98153.28;4993568;28;20050;-80
2024/01/28 11:39:15;;;;;;;4.38;2.63;;;;;;;16.65;35.97;98144.09;4993659;28;20054;-80
2024/01/28 11:41:44;;;;;;;5.30;2.72;;;;;;;16.81;34.46;98135.19;4993307;28;20046;-80
2024/01/28 11:44:12;;;;;;;2.83;2.50;;;;;;;16.91;35.64;98129.66;4993111;28;20488;-80